Terminal Aerodrome Forecast
Issued by NWS Lake Charles, LA

Home | Current Version | Previous Version | Text Only | Print | Product List | Glossary On
Versions: 1 2 3 4 5 6 7 8 9 10 11 12 13 14 15
000
FTUS44 KLCH 291125
TAFLCH
TAF
KLCH 291125Z 2912/3012 15004KT P6SM SKC
      TEMPO 2912/2913 5SM BR
     FM291400 17007KT P6SM SCT250
     FM291700 19014G20KT P6SM SCT250
     FM300000 17006KT P6SM SCT025
     FM300800 16003KT 4SM BR SCT015=

USA.gov is the U.S. government's official web portal to all federal, state and local government web resources and services.